Time;durP1;ratioP1;P1;durP2;ratioP2;P2;SDS_P1;SDS_P2;PMS_P1;PMS_P2;Temp;Humidity;BMP_temperature;BMP_pressure;BME280_temperature;BME280_humidity;BME280_pressure;Samples;Min_cycle;Max_cycle;Signal;HPM_P1;HPM_P2
2021/10/28 00:12:31;;;;;;;;;102.00;81.00;;;;;0.98;100.00;100740.31;6278096;20;3672090;-36
2021/10/28 00:15:06;;;;;;;;;104.67;81.00;;;;;0.76;100.00;100731.59;6277663;20;3676484;-36
2021/10/28 00:18:26;;;;;;;;;98.33;72.67;;;;;0.64;100.00;100736.06;6281061;20;3649191;-37
2021/10/28 00:20:34;;;;;;;;;94.67;73.33;;;;;0.65;100.00;100740.44;6275515;20;3647121;-36
2021/10/28 00:23:09;;;;;;;;;96.67;72.00;;;;;0.63;100.00;100741.34;6308574;20;3666881;-36
2021/10/28 00:25:39;;;;;;;;;97.00;71.00;;;;;0.64;100.00;100738.69;6279345;20;2779435;-36
2021/10/28 00:28:10;;;;;;;;;101.33;77.33;;;;;0.71;100.00;100738.66;6280365;20;3687762;-36
2021/10/28 00:30:39;;;;;;;;;100.67;75.00;;;;;0.99;100.00;100719.13;6279111;20;3670071;-36
2021/10/28 00:33:09;;;;;;;;;92.67;63.67;;;;;1.19;100.00;100726.09;6277083;20;3655573;-36
2021/10/28 00:35:39;;;;;;;;;97.33;74.67;;;;;1.14;100.00;100734.03;6309561;20;3656556;-36
2021/10/28 00:38:08;;;;;;;;;94.00;70.67;;;;;0.85;100.00;100731.56;6278033;20;3646114;-36
2021/10/28 00:40:38;;;;;;;;;102.67;72.67;;;;;1.24;100.00;100729.56;6311719;20;3682615;-37
2021/10/28 00:43:08;;;;;;;;;104.50;81.00;;;;;1.32;100.00;100727.75;6276684;20;2805525;-36
2021/10/28 00:45:40;;;;;;;;;104.67;79.33;;;;;1.15;98.09;100732.28;6311114;20;3685719;-36
2021/10/28 00:48:10;;;;;;;;;106.67;84.67;;;;;0.52;99.99;100728.16;6276796;20;3691955;-36
2021/10/28 00:50:40;;;;;;;;;102.33;74.33;;;;;0.26;100.00;100724.72;6278207;20;3666361;-36
2021/10/28 00:53:10;;;;;;;;;104.67;78.67;;;;;0.18;100.00;100725.63;6280179;20;3690886;-36
2021/10/28 00:55:40;;;;;;;;;101.00;79.00;;;;;0.44;100.00;100735.25;6275282;20;3664825;-36
2021/10/28 00:58:11;;;;;;;;;108.33;82.33;;;;;0.78;100.00;100725.41;6310402;20;3693188;-36
2021/10/28 01:00:40;;;;;;;;;95.00;71.33;;;;;0.92;100.00;100727.97;6275438;20;3657561;-36
2021/10/28 01:03:10;;;;;;;;;94.33;71.33;;;;;1.23;100.00;100733.09;6315326;20;3639965;-36
2021/10/28 01:05:40;;;;;;;;;92.67;69.33;;;;;1.16;100.00;100726.06;6316844;20;3663797;-36
2021/10/28 01:08:10;;;;;;;;;94.33;67.00;;;;;1.17;100.00;100722.56;6311926;20;3653370;-36
2021/10/28 01:10:40;;;;;;;;;95.33;70.00;;;;;1.26;100.00;100718.09;6313613;20;3649391;-36
2021/10/28 01:13:10;;;;;;;;;82.67;65.00;;;;;1.30;100.00;100713.66;6317184;20;2883676;-36
2021/10/28 01:15:39;;;;;;;;;87.33;65.67;;;;;1.23;100.00;100714.56;6315077;20;3636760;-36
2021/10/28 01:18:16;;;;;;;;;89.67;65.67;;;;;0.93;100.00;100713.88;6314929;20;3647150;-36
2021/10/28 01:20:51;;;;;;;;;74.00;56.00;;;;;0.46;100.00;100717.63;6315933;20;2883578;-36
2021/10/28 01:23:25;;;;;;;;;91.33;67.00;;;;;0.09;100.00;100720.38;6314305;20;3650208;-36
2021/10/28 01:26:00;;;;;;;;;92.33;69.00;;;;;0.34;100.00;100722.94;6314166;20;3660721;-37
2021/10/28 01:28:34;;;;;;;;;97.00;71.33;;;;;0.79;100.00;100721.91;6315681;20;3662845;-36
2021/10/28 01:31:10;;;;;;;;;100.67;72.00;;;;;0.06;100.00;100723.03;6314866;20;3666917;-36
2021/10/28 01:33:41;;;;;;;;;96.67;73.00;;;;;0.20;100.00;100726.50;6316515;20;3653374;-36
2021/10/28 01:36:11;;;;;;;;;94.67;67.33;;;;;0.35;100.00;100730.00;6314408;20;3662751;-36
2021/10/28 01:38:42;;;;;;;;;106.00;77.33;;;;;0.19;100.00;100723.88;6278041;20;3670103;-36
2021/10/28 01:41:12;;;;;;;;;96.67;72.67;;;;;0.18;100.00;100722.97;6284973;20;3658687;-36
2021/10/28 01:43:43;;;;;;;;;95.67;71.00;;;;;-0.13;100.00;100723.91;6315315;20;3660662;-36
2021/10/28 01:46:13;;;;;;;;;100.33;74.00;;;;;0.06;100.00;100720.38;6314505;20;3668968;-36
2021/10/28 01:48:43;;;;;;;;;93.00;70.67;;;;;-0.08;100.00;100719.53;6275595;20;3642000;-36
2021/10/28 01:51:15;;;;;;;;;96.00;71.00;;;;;0.02;100.00;100710.72;6311366;20;3636673;-36
2021/10/28 01:53:44;;;;;;;;;98.33;73.33;;;;;0.06;100.00;100712.47;6308034;20;3642942;-36
2021/10/28 01:56:14;;;;;;;;;87.00;68.67;;;;;0.07;100.00;100710.69;6309449;20;2889918;-37
2021/10/28 01:58:44;;;;;;;;;88.67;65.67;;;;;0.10;100.00;100708.91;6306889;20;3659581;-36
2021/10/28 02:01:13;;;;;;;;;92.75;68.00;;;;;0.32;100.00;100711.53;6314043;20;3646173;-36
2021/10/28 02:03:44;;;;;;;;;94.00;69.00;;;;;0.51;100.00;100704.41;6313811;20;3661701;-36
2021/10/28 02:06:13;;;;;;;;;85.33;65.33;;;;;0.70;100.00;100695.50;6315515;20;3641897;-36
2021/10/28 02:08:43;;;;;;;;;93.00;70.00;;;;;0.68;100.00;100697.25;6313939;20;3648146;-36
2021/10/28 02:11:13;;;;;;;;;98.33;71.00;;;;;0.72;100.00;100693.72;6314305;20;3654882;-36
2021/10/28 02:13:42;;;;;;;;;96.33;72.33;;;;;0.44;100.00;100692.97;6311826;20;3659763;-37
2021/10/28 02:16:12;;;;;;;;;96.67;68.00;;;;;0.49;100.00;100685.91;6312460;20;3655966;-36
2021/10/28 02:18:42;;;;;;;;;97.33;71.00;;;;;0.35;100.00;100687.75;6314456;20;3671087;-36
2021/10/28 02:21:11;;;;;;;;;91.33;67.67;;;;;0.37;100.00;100699.16;6315504;20;3664929;-36
2021/10/28 02:23:41;;;;;;;;;93.33;69.33;;;;;0.19;100.00;100693.06;6312697;20;3645082;-37
2021/10/28 02:26:11;;;;;;;;;102.67;79.00;;;;;0.08;100.00;100700.16;6316207;20;3676444;-36
2021/10/28 02:28:41;;;;;;;;;92.67;70.67;;;;;-0.02;100.00;100696.66;6280452;20;3631505;-36
2021/10/28 02:31:10;;;;;;;;;89.67;65.00;;;;;-0.03;100.00;100696.63;6313934;20;3657687;-36
2021/10/28 02:33:40;;;;;;;;;93.33;69.33;;;;;0.12;100.00;100701.88;6315137;20;3649318;-36
2021/10/28 02:36:10;;;;;;;;;90.33;68.67;;;;;-0.20;100.00;100703.72;6311770;20;2878654;-36
2021/10/28 02:38:40;;;;;;;;;94.33;72.33;;;;;0.04;100.00;100703.66;6312590;20;3648171;-38
2021/10/28 02:41:08;;;;;;;;;79.50;62.00;;;;;-0.01;100.00;100700.16;6311159;20;2500261;-36
2021/10/28 02:43:38;;;;;;;;;86.67;65.00;;;;;0.21;100.00;100700.97;6282784;20;3650216;-36
2021/10/28 02:46:08;;;;;;;;;84.67;61.67;;;;;0.35;100.00;100703.59;6313714;20;3646077;-36
2021/10/28 02:48:38;;;;;;;;;87.67;64.33;;;;;-0.16;100.00;100703.69;6313443;20;3662994;-36
2021/10/28 02:51:08;;;;;;;;;91.67;69.33;;;;;-0.27;100.00;100703.72;6314404;20;3645026;-36
2021/10/28 02:53:37;;;;;;;;;91.33;67.67;;;;;-0.25;100.00;100704.59;6312728;20;3654385;-36
2021/10/28 02:56:07;;;;;;;;;83.67;63.00;;;;;-0.29;100.00;100709.88;6314133;20;3628347;-36
2021/10/28 02:58:37;;;;;;;;;88.67;66.00;;;;;-0.27;100.00;100703.72;6312616;20;3661708;-36
2021/10/28 03:01:06;;;;;;;;;91.33;67.33;;;;;-0.10;100.00;100701.06;6313553;20;3649188;-36
2021/10/28 03:03:38;;;;;;;;;91.00;64.00;;;;;-0.08;100.00;100703.69;6314235;20;3655417;-36
2021/10/28 03:06:08;;;;;;;;;83.67;63.33;;;;;0.26;100.00;100709.75;6313677;20;3642945;-36
2021/10/28 03:08:38;;;;;;;;;90.33;64.33;;;;;0.22;100.00;100708.03;6314432;20;3657651;-36
2021/10/28 03:11:08;;;;;;;;;79.33;62.00;;;;;-0.02;100.00;100703.69;6313809;20;2877356;-36
2021/10/28 03:13:38;;;;;;;;;84.67;60.00;;;;;0.10;100.00;100710.69;6313305;20;3651263;-36
2021/10/28 03:16:17;;;;;;;;;83.67;62.33;;;;;0.17;100.00;100709.81;6314168;20;3646119;-36
2021/10/28 03:19:29;;;;;;;;;84.67;60.67;;;;;-0.01;100.00;100706.31;6312110;20;3661782;-37
2021/10/28 03:27:12;;;;;;;;;95.00;66.67;;;;;-0.48;100.00;100706.38;6312502;20;3660777;-37
2021/10/28 03:29:43;;;;;;;;;92.00;71.00;;;;;-0.39;100.00;100714.28;6314991;20;3643041;-37
2021/10/28 03:32:12;;;;;;;;;89.67;65.67;;;;;-0.55;100.00;100713.41;6313640;20;3653377;-37
2021/10/28 03:34:43;;;;;;;;;94.00;68.67;;;;;-0.86;100.00;100717.78;6311769;20;3652350;-37
2021/10/28 03:37:21;;;;;;;;;91.67;66.67;;;;;-0.77;100.00;100712.50;6310609;20;3653541;-37
2021/10/28 03:58:45;;;;;;;;;99.00;76.00;;;;;-0.71;100.00;100717.81;6312114;20;3651295;-37
2021/10/28 04:04:16;;;;;;;;;94.67;71.67;;;;;-0.57;100.00;100733.63;6279203;20;3677347;-37
2021/10/28 04:31:05;;;;;;;;;92.00;66.67;;;;;0.03;100.00;100728.31;6312671;20;3659593;-37
2021/10/28 04:33:40;;;;;;;;;94.33;70.33;;;;;0.00;100.00;100717.78;6311064;20;3654463;-37
2021/10/28 04:36:13;;;;;;;;;91.00;68.00;;;;;0.07;100.00;100716.84;6313040;20;3648167;-37
2021/10/28 04:38:42;;;;;;;;;90.33;66.00;;;;;-0.24;100.00;100719.56;6316902;20;3649228;-37
2021/10/28 04:41:12;;;;;;;;;95.67;69.00;;;;;-0.25;100.00;100716.91;6315961;20;3629539;-37
2021/10/28 04:43:42;;;;;;;;;92.00;67.67;;;;;0.06;100.00;100728.31;6315921;20;3644035;-37
2021/10/28 04:46:11;;;;;;;;;96.67;70.33;;;;;-0.44;100.00;100721.31;6314556;20;3643059;-37
2021/10/28 04:48:41;;;;;;;;;98.33;71.33;;;;;-0.77;100.00;100728.31;6315755;20;3649220;-37
2021/10/28 04:51:11;;;;;;;;;99.00;70.67;;;;;-0.83;100.00;100728.31;6284254;20;3670047;-37
2021/10/28 04:53:42;;;;;;;;;100.00;73.67;;;;;-0.97;100.00;100727.44;6314802;20;3676345;-37
2021/10/28 04:56:11;;;;;;;;;97.00;71.33;;;;;-0.83;100.00;100725.69;6284055;20;3662843;-37
2021/10/28 04:58:42;;;;;;;;;93.67;68.00;;;;;-0.93;100.00;100731.81;6316370;20;3658577;-37
2021/10/28 05:01:12;;;;;;;;;99.67;75.33;;;;;-1.12;100.00;100733.53;6312090;20;3659630;-37
2021/10/28 05:03:42;;;;;;;;;97.67;73.00;;;;;-0.80;100.00;100735.34;6284210;20;3664958;-37
2021/10/28 05:06:12;;;;;;;;;106.33;76.00;;;;;-0.87;100.00;100731.81;6283092;20;3695059;-37
2021/10/28 05:08:42;;;;;;;;;97.33;73.67;;;;;-1.12;100.00;100734.41;6282052;20;2891011;-37
2021/10/28 05:11:17;;;;;;;;;117.00;89.00;;;;;-1.21;100.00;100737.03;6314213;20;3704525;-37
2021/10/28 05:13:47;;;;;;;;;111.67;89.67;;;;;-1.15;100.00;100730.88;6281513;20;3699280;-37
2021/10/28 05:16:17;;;;;;;;;104.67;78.33;;;;;-0.97;100.00;100740.59;6282620;20;3678331;-38
2021/10/28 05:18:48;;;;;;;;;109.33;83.67;;;;;-1.14;100.00;100737.91;6281415;20;3689009;-37
2021/10/28 05:21:18;;;;;;;;;110.00;86.33;;;;;-0.94;100.00;100743.25;6284982;20;3692946;-37
2021/10/28 05:23:47;;;;;;;;;106.33;79.00;;;;;-0.94;100.00;100745.88;6284408;20;3686248;-37
2021/10/28 05:26:17;;;;;;;;;115.00;87.33;;;;;-0.84;100.00;100744.13;6283977;20;3689871;-38
2021/10/28 05:28:48;;;;;;;;;102.67;74.67;;;;;-0.63;100.00;100749.47;6282182;20;3654398;-37
2021/10/28 05:31:21;;;;;;;;;105.67;79.00;;;;;-0.76;100.00;100752.94;6316001;20;3681528;-37
2021/10/28 05:33:51;;;;;;;;;108.00;82.67;;;;;-0.64;100.00;100749.44;6282113;20;3688821;-37
2021/10/28 05:36:20;;;;;;;;;110.00;82.33;;;;;-0.75;100.00;100747.66;6282858;20;3686707;-37
2021/10/28 05:38:50;;;;;;;;;111.00;84.67;;;;;-0.70;100.00;100756.47;6281355;20;3689830;-37
2021/10/28 05:41:21;;;;;;;;;104.67;82.33;;;;;-0.62;100.00;100752.97;6283887;20;3685008;-37
2021/10/28 05:43:50;;;;;;;;;110.00;85.67;;;;;-0.65;100.00;100756.47;6284189;20;3699341;-37
2021/10/28 05:46:21;;;;;;;;;111.33;87.67;;;;;-0.57;100.00;100761.75;6282791;20;3704525;-37
2021/10/28 05:48:51;;;;;;;;;108.33;79.33;;;;;-0.40;100.00;100765.28;6279660;20;3684656;-37
2021/10/28 05:51:21;;;;;;;;;107.33;81.00;;;;;-0.32;100.00;100765.28;6282448;20;3676374;-37
2021/10/28 05:53:51;;;;;;;;;99.33;76.67;;;;;-0.39;100.00;100772.34;6281604;20;3660673;-37
2021/10/28 05:56:21;;;;;;;;;107.00;78.00;;;;;-0.31;100.00;100770.56;6314428;20;3696110;-37
2021/10/28 05:58:50;;;;;;;;;98.33;71.67;;;;;-0.28;100.00;100774.97;6277466;20;3660674;-37
2021/10/28 06:01:20;;;;;;;;;110.33;90.33;;;;;-0.35;100.00;100784.63;6314384;20;3701276;-37
2021/10/28 06:03:50;;;;;;;;;89.67;63.00;;;;;-0.37;100.00;100786.41;6283692;20;2904564;-37
2021/10/28 06:06:20;;;;;;;;;89.67;65.00;;;;;-0.92;100.00;100787.19;6316251;20;3659603;-38
2021/10/28 06:08:49;;;;;;;;;122.67;102.33;;;;;-0.91;100.00;100788.94;6314726;20;3706467;-37
2021/10/28 06:11:19;;;;;;;;;98.33;72.33;;;;;-0.47;100.00;100790.78;6281807;20;3658656;-37
2021/10/28 06:13:50;;;;;;;;;90.00;67.67;;;;;0.07;98.37;100792.56;6279116;20;3653544;-37
2021/10/28 06:16:22;;;;;;;;;86.00;66.00;;;;;0.04;97.37;100795.19;6313307;20;3650383;-37
2021/10/28 06:18:53;;;;;;;;;92.00;68.33;;;;;-0.04;98.09;100792.56;6313424;20;3647138;-37
2021/10/28 06:21:26;;;;;;;;;103.33;75.67;;;;;0.30;98.73;100797.81;6312833;20;3670112;-37
2021/10/28 06:23:56;;;;;;;;;94.33;68.00;;;;;0.40;99.42;100799.56;6281216;20;3647197;-38
2021/10/28 06:26:29;;;;;;;;;99.00;76.67;;;;;0.81;98.41;100807.34;6314808;20;3672146;-38
2021/10/28 06:28:58;;;;;;;;;106.00;81.00;;;;;0.89;98.81;100802.03;6312128;20;3693097;-37
2021/10/28 06:31:28;;;;;;;;;105.67;78.33;;;;;1.51;97.55;100802.59;6280744;20;3689899;-37
2021/10/28 06:34:01;;;;;;;;;100.33;80.00;;;;;3.16;93.19;100800.06;6282941;20;3660649;-37
2021/10/28 06:36:35;;;;;;;;;98.67;84.67;;;;;7.19;75.64;100819.06;6283549;20;3661816;-37
2021/10/28 06:39:05;;;;;;;;;99.67;85.00;;;;;8.75;67.70;100816.63;6279374;20;3688755;-37
2021/10/28 06:41:37;;;;;;;;;96.67;80.67;;;;;8.96;65.01;100817.66;6281233;20;3664397;-37
2021/10/28 06:44:07;;;;;;;;;96.00;80.00;;;;;9.76;62.81;100821.78;6281122;20;3684645;-37
2021/10/28 06:46:37;;;;;;;;;98.67;85.33;;;;;9.30;63.02;100816.41;6281193;20;3689936;-37
2021/10/28 06:49:08;;;;;;;;;101.00;85.50;;;;;9.82;62.30;100819.72;6292186;20;4451249;-38
2021/10/28 06:51:40;;;;;;;;;84.67;62.33;;;;;10.16;61.32;100818.31;6311641;20;3653388;-38
2021/10/28 06:54:30;;;;;;;;;90.33;72.00;;;;;10.59;59.94;100816.56;6277683;20;3671203;-38
2021/10/28 07:02:43;;;;;;;;;136.50;124.00;;;;;5.87;78.14;100819.84;6282078;20;1957616;-39
2021/10/28 07:05:13;;;;;;;;;102.33;88.33;;;;;10.87;63.04;100831.44;6284267;20;3678510;-37
2021/10/28 07:07:43;;;;;;;;;93.33;78.33;;;;;11.61;58.94;100828.91;6285042;20;3686694;-38
2021/10/28 07:10:23;;;;;;;;;87.00;73.50;;;;;12.64;57.16;100840.03;6285124;20;4413737;-38
2021/10/28 07:13:05;;;;;;;;;85.33;66.00;;;;;8.25;68.87;100826.41;6318330;20;3649335;-38
2021/10/28 07:15:40;;;;;;;;;87.67;65.67;;;;;5.72;81.29;100829.09;6281364;20;3651321;-38
2021/10/28 07:32:04;;;;;;;;;83.00;65.00;;;;;5.55;88.72;100839.25;6316478;20;3623287;-38
2021/10/28 08:18:03;;;;;;;;;86.33;69.33;;;;;8.02;83.41;100824.47;6279148;20;3655499;-38
2021/10/28 08:20:55;;;;;;;;;79.67;61.00;;;;;8.22;83.28;100832.72;6284078;20;3634672;-38
2021/10/28 08:28:50;;;;;;;;;81.67;62.33;;;;;8.88;81.02;100837.63;6313237;20;3648199;-45
2021/10/28 08:31:22;;;;;;;;;82.00;66.00;;;;;9.05;79.55;100834.31;6282376;20;3645035;-46
2021/10/28 08:33:52;;;;;;;;;71.67;56.00;;;;;9.09;79.13;100838.66;6312635;20;3637740;-45
2021/10/28 08:36:26;;;;;;;;;80.00;61.00;;;;;9.40;78.19;100824.94;6316588;20;3651298;-43
2021/10/28 08:38:58;;;;;;;;;81.33;60.67;;;;;9.30;77.50;100827.13;6280685;20;3647115;-44
2021/10/28 08:41:29;;;;;;;;;89.00;75.00;;;;;9.66;76.26;100823.94;6314628;20;3677312;-44
2021/10/28 08:44:03;;;;;;;;;73.67;58.33;;;;;9.62;76.09;100825.00;6280664;20;2871232;-45
2021/10/28 08:46:33;;;;;;;;;72.67;56.00;;;;;9.80;74.95;100821.59;6319056;20;3616916;-43
2021/10/28 08:49:06;;;;;;;;;87.00;75.33;;;;;10.19;75.01;100830.75;6279675;20;3671297;-45
2021/10/28 09:27:14;;;;;;;;;90.50;81.50;;;;;11.92;65.67;100827.50;6317309;20;1935687;-46
2021/10/28 09:30:15;;;;;;;;;72.00;55.67;;;;;11.95;64.90;100833.59;6285217;20;3627283;-46
2021/10/28 09:32:49;;;;;;;;;61.00;49.33;;;;;12.14;64.62;100832.69;6323641;20;3621207;-46
2021/10/28 09:44:19;;;;;;;;;68.33;53.33;;;;;12.26;64.33;100824.88;6287397;20;3633100;-45
2021/10/28 09:46:50;;;;;;;;;69.67;54.00;;;;;12.13;63.54;100828.25;6319684;20;3608576;-44
2021/10/28 09:52:15;;;;;;;;;68.00;52.00;;;;;12.66;62.82;100820.13;6320516;20;3637795;-43
2021/10/28 09:57:37;;;;;;;;;75.75;56.25;;;;;12.88;61.50;100819.88;6320066;20;4408698;-44
2021/10/28 09:57:58;;;;;;;;;61.00;48.50;;;;;12.37;62.87;100818.94;6317949;20;3629606;-44
2021/10/28 10:00:39;;;;;;;;;65.33;50.67;;;;;12.91;60.84;100817.03;6317073;20;3618459;-44
2021/10/28 10:03:23;;;;;;;;;64.75;47.00;;;;;13.03;60.15;100818.19;6284590;20;3649425;-44
2021/10/28 10:06:02;;;;;;;;;60.00;48.00;;;;;12.56;60.58;100818.00;6315826;20;3617970;-44
2021/10/28 10:08:34;;;;;;;;;60.33;46.33;;;;;13.13;58.80;100821.25;6317982;20;3613110;-45
2021/10/28 10:11:04;;;;;;;;;62.67;48.67;;;;;13.05;58.86;100815.41;6319754;20;3630485;-47
2021/10/28 10:13:32;;;;;;;;;111.00;94.50;;;;;13.07;58.63;100816.22;6281796;20;1941140;-45
2021/10/28 10:16:02;;;;;;;;;63.33;51.67;;;;;12.71;58.51;100811.81;6284775;20;3607700;-44
2021/10/28 10:18:36;;;;;;;;;57.33;46.00;;;;;13.11;58.89;100809.69;6285295;20;3632636;-44
2021/10/28 10:21:21;;;;;;;;;56.33;46.00;;;;;12.60;59.91;100803.41;6316386;20;3613798;-44
2021/10/28 10:30:26;;;;;;;;;124.67;107.33;;;;;12.92;57.65;100809.81;6316616;20;3706483;-44
2021/10/28 11:26:02;;;;;;;;;48.00;37.00;;;;;13.79;54.72;100740.22;6319178;20;3597194;-45
2021/10/28 12:51:15;;;;;;;;;41.67;35.33;;;;;14.38;51.43;100642.22;6283657;20;3620164;-47
2021/10/28 13:03:22;;;;;;;;;39.00;35.00;;;;;14.55;52.10;100631.25;6318106;20;2856494;-44
2021/10/28 13:53:21;;;;;;;;;48.00;39.00;;;;;14.10;52.78;100600.69;6319362;20;3598326;-46
2021/10/28 14:23:21;;;;;;;;;51.00;40.50;;;;;13.65;54.03;100599.84;6283387;20;2863873;-47
2021/10/28 15:40:25;;;;;;;;;73.33;56.67;;;;;9.60;70.47;100561.44;6318660;20;3623139;-37
2021/10/28 15:49:19;;;;;;;;;74.67;58.67;;;;;9.10;73.67;100556.41;6310728;20;3600248;-37
2021/10/28 15:59:43;;;;;;;;;80.25;62.00;;;;;8.53;77.30;100551.56;6315772;20;3656679;-37
2021/10/28 16:22:00;;;;;;;;;131.00;108.00;;;;;7.74;79.73;100550.03;6278273;20;1948246;-37
2021/10/28 16:24:34;;;;;;;;;118.75;96.50;;;;;7.59;80.21;100540.75;6281478;20;4455432;-36
2021/10/28 16:27:05;;;;;;;;;219.50;181.75;;;;;7.44;80.35;100552.00;6282039;20;4475195;-37
2021/10/28 16:29:34;;;;;;;;;131.50;116.00;;;;;7.40;80.92;100550.38;6307054;20;1951455;-36
2021/10/28 16:32:05;;;;;;;;;122.00;97.25;;;;;7.30;81.02;100544.47;6283194;20;4476212;-36
2021/10/28 16:34:33;;;;;;;;;139.00;116.50;;;;;7.11;81.99;100544.22;6278137;20;1961819;-37
2021/10/28 16:37:04;;;;;;;;;139.57;115.43;;;;;7.03;82.36;100547.13;6298690;20;2533634;-37
2021/10/28 16:39:34;;;;;;;;;154.00;118.00;;;;;7.04;82.80;100542.66;6280442;20;1956599;-36
2021/10/28 16:42:02;;;;;;;;;139.00;121.00;;;;;7.16;82.27;100550.28;6282854;20;1955617;-37
2021/10/28 16:44:30;;;;;;;;;141.50;122.00;;;;;6.95;83.34;100548.28;6280805;20;1960767;-37
2021/10/28 16:47:02;;;;;;;;;148.83;127.67;;;;;6.84;84.22;100545.09;6301492;20;2539858;-37
2021/10/28 16:49:32;;;;;;;;;152.33;126.33;;;;;6.84;84.29;100547.78;6286179;20;3734583;-37
2021/10/28 16:52:03;;;;;;;;;126.00;102.50;;;;;6.70;85.57;100553.56;6285347;20;4483567;-36
2021/10/28 16:54:33;;;;;;;;;174.00;138.00;;;;;6.62;86.00;100551.13;6280423;20;1948295;-36
2021/10/28 16:57:02;;;;;;;;;203.00;156.00;;;;;6.64;85.87;100557.31;6282406;20;1959796;-37
2021/10/28 16:59:32;;;;;;;;;236.25;190.75;;;;;6.65;85.86;100556.38;6286144;20;4470061;-37
2021/10/28 17:02:03;;;;;;;;;254.75;196.50;;;;;6.48;86.65;100554.25;6319303;20;4466938;-36
2021/10/28 17:04:33;;;;;;;;;284.00;221.50;;;;;6.43;87.94;100561.50;6320585;20;4493944;-36
2021/10/28 17:07:04;;;;;;;;;286.75;234.00;;;;;6.43;88.05;100555.31;6287119;20;3721109;-37
2021/10/28 17:09:34;;;;;;;;;271.75;228.75;;;;;6.36;88.50;100560.81;6283629;20;4483503;-37
2021/10/28 17:12:05;;;;;;;;;304.00;244.50;;;;;6.15;89.78;100559.66;6285967;20;3740931;-37
2021/10/28 17:14:37;;;;;;;;;300.00;233.50;;;;;6.12;89.77;100566.88;6283793;20;3732563;-37
2021/10/28 17:17:07;;;;;;;;;282.00;228.00;;;;;5.98;89.26;100566.38;6282072;20;3727469;-36
2021/10/28 17:19:41;;;;;;;;;275.25;222.25;;;;;6.07;89.42;100556.34;6283987;20;4484635;-37
2021/10/28 17:22:10;;;;;;;;;263.50;221.75;;;;;5.85;89.80;100561.38;6321367;20;4496040;-37
2021/10/28 17:24:49;;;;;;;;;236.00;196.33;;;;;5.68;90.45;100560.97;6282877;20;3708692;-36
2021/10/28 17:27:20;;;;;;;;;302.25;237.00;;;;;5.60;90.70;100568.28;6290142;20;4508548;-38
2021/10/28 17:29:50;;;;;;;;;280.25;230.50;;;;;5.65;90.03;100569.03;6283471;20;4486710;-37
2021/10/28 17:32:20;;;;;;;;;260.75;216.25;;;;;5.57;90.41;100568.38;6286881;20;3724317;-36
2021/10/28 17:34:51;;;;;;;;;238.75;200.25;;;;;5.44;91.70;100565.16;6286094;20;4520207;-37
2021/10/28 17:37:23;;;;;;;;;266.25;216.50;;;;;5.30;92.07;100565.53;6285689;20;4457969;-37
2021/10/28 17:39:54;;;;;;;;;286.00;234.00;;;;;5.22;92.83;100567.53;6319115;20;3728805;-37
2021/10/28 17:42:24;;;;;;;;;227.75;202.50;;;;;5.23;92.66;100566.59;6285912;20;4500207;-37
2021/10/28 17:44:57;;;;;;;;;262.00;221.25;;;;;5.14;92.36;100565.06;6293496;20;4477275;-37
2021/10/28 17:47:28;;;;;;;;;280.67;223.67;;;;;5.10;92.83;100573.16;6285817;20;3707499;-37
2021/10/28 17:49:58;;;;;;;;;453.75;334.50;;;;;4.90;92.45;100569.19;6282483;20;4539785;-36
2021/10/28 17:52:41;;;;;;;;;219.75;175.25;;;;;5.59;91.94;100561.22;6284386;20;4460629;-37
2021/10/28 17:55:10;;;;;;;;;642.80;466.80;;;;;5.25;90.94;100562.97;6271641;20;5339799;-37
2021/10/28 17:57:49;;;;;;;;;774.40;551.60;;;;;5.05;92.76;100559.94;6235882;20;5279467;-37
2021/10/28 18:00:21;;;;;;;;;597.20;442.00;;;;;5.28;92.07;100559.38;6239150;20;5314976;-37
2021/10/28 18:02:54;;;;;;;;;485.00;357.60;;;;;4.98;93.50;100561.03;6315814;20;4552382;-36
2021/10/28 18:05:41;;;;;;;;;316.50;245.75;;;;;5.07;92.60;100563.44;6314806;20;4523193;-36
2021/10/28 18:08:13;;;;;;;;;286.33;245.00;;;;;5.19;93.37;100567.59;6280302;20;3727301;-36
2021/10/28 18:10:45;;;;;;;;;298.25;252.00;;;;;5.34;92.46;100567.19;6282788;20;3730425;-37
2021/10/28 18:13:18;;;;;;;;;338.25;261.25;;;;;5.20;92.40;100564.03;6314029;20;3714898;-37
2021/10/28 18:15:51;;;;;;;;;351.00;263.50;;;;;5.09;93.09;100555.44;6282043;20;3722213;-37
2021/10/28 18:18:21;;;;;;;;;324.33;263.67;;;;;5.19;92.66;100556.97;6279580;20;3725283;-37
2021/10/28 18:21:02;;;;;;;;;332.00;265.00;;;;;4.76;93.37;100561.53;6281679;20;3734715;-37
2021/10/28 18:23:40;;;;;;;;;303.00;243.50;;;;;4.83;94.08;100560.47;6281325;20;4510639;-37
2021/10/28 18:26:12;;;;;;;;;293.67;235.33;;;;;4.85;94.46;100563.09;6281377;20;3721200;-37
2021/10/28 18:28:42;;;;;;;;;302.33;231.67;;;;;4.60;94.49;100555.69;6278936;20;4391908;-37
2021/10/28 18:31:13;;;;;;;;;275.50;224.00;;;;;4.55;95.01;100560.22;6311012;20;3723168;-37
2021/10/28 18:33:45;;;;;;;;;259.75;218.75;;;;;4.65;94.90;100554.72;6278027;20;3723431;-37
2021/10/28 18:36:16;;;;;;;;;257.25;212.00;;;;;4.61;95.20;100552.13;6277631;20;4469076;-36
2021/10/28 18:38:47;;;;;;;;;230.33;169.33;;;;;4.40;94.45;100560.59;6312456;20;3691957;-37
2021/10/28 18:41:19;;;;;;;;;255.00;207.00;;;;;4.51;94.61;100558.56;6278692;20;4494972;-37
2021/10/28 18:43:49;;;;;;;;;232.75;195.00;;;;;4.44;95.47;100554.28;6311913;20;4495008;-37
2021/10/28 18:46:22;;;;;;;;;284.25;223.75;;;;;4.04;95.02;100554.28;6277710;20;4479422;-36
2021/10/28 18:49:00;;;;;;;;;281.50;225.25;;;;;3.99;96.07;100562.34;6312410;20;4490879;-37
2021/10/28 18:51:32;;;;;;;;;278.33;227.00;;;;;3.92;95.85;100563.38;6278421;20;3728368;-37
2021/10/28 18:54:04;;;;;;;;;289.75;233.50;;;;;3.65;96.69;100567.44;6281033;20;3727452;-36
2021/10/28 18:56:35;;;;;;;;;289.50;236.75;;;;;3.68;96.46;100557.63;6275723;20;4466953;-37
2021/10/28 18:59:05;;;;;;;;;295.25;232.00;;;;;4.00;96.06;100564.09;6312721;20;4481434;-36
2021/10/28 19:01:36;;;;;;;;;239.00;204.50;;;;;3.92;95.70;100564.28;6314613;20;4492917;-37
2021/10/28 19:04:07;;;;;;;;;238.00;193.00;;;;;3.44;95.58;100561.63;6277579;20;3721042;-36
2021/10/28 19:06:38;;;;;;;;;260.75;200.25;;;;;3.46;95.84;100554.53;6279666;20;4496010;-37
2021/10/28 19:09:08;;;;;;;;;229.25;187.00;;;;;3.59;96.73;100565.78;6279317;20;4486685;-36
2021/10/28 19:11:39;;;;;;;;;246.00;198.25;;;;;3.41;96.88;100561.69;6279312;20;4485683;-37
2021/10/28 19:14:10;;;;;;;;;258.33;212.33;;;;;3.40;96.78;100565.25;6281370;20;3687751;-36
2021/10/28 19:16:38;;;;;;;;;238.50;198.00;;;;;3.64;96.61;100569.25;6273228;20;1971178;-36
2021/10/28 19:19:07;;;;;;;;;242.00;201.00;;;;;3.33;97.01;100562.75;6274318;20;1966034;-37
2021/10/28 19:21:40;;;;;;;;;236.25;195.00;;;;;3.75;95.75;100569.03;6280613;20;4503301;-36
2021/10/28 19:24:10;;;;;;;;;262.50;204.50;;;;;3.68;95.26;100562.94;6282364;20;4451844;-36
2021/10/28 19:26:40;;;;;;;;;247.25;195.50;;;;;2.91;96.38;100560.78;6313226;20;4510655;-36
2021/10/28 19:29:10;;;;;;;;;152.50;131.50;;;;;3.42;94.70;100573.19;6274746;20;1961760;-37
2021/10/28 19:31:52;;;;;;;;;118.33;101.33;;;;;3.29;94.00;100556.59;6309725;20;3693034;-36
2021/10/28 19:34:22;;;;;;;;;108.33;88.00;;;;;3.05;96.04;100563.19;6279311;20;3700359;-37
2021/10/28 19:47:23;;;;;;;;;149.50;119.00;;;;;3.78;96.43;100562.78;6305581;20;1960859;-37
2021/10/28 19:49:54;;;;;;;;;156.50;135.00;;;;;3.76;96.05;100556.63;6280183;20;4508547;-37
2021/10/28 19:52:24;;;;;;;;;162.50;136.25;;;;;3.49;96.51;100559.78;6280532;20;4511707;-36
2021/10/28 19:55:01;;;;;;;;;180.00;156.50;;;;;3.26;97.20;100554.88;6276993;20;3710710;-37